Time;durP1;ratioP1;P1;durP2;ratioP2;P2;SDS_P1;SDS_P2;PMS_P1;PMS_P2;Temp;Humidity;BMP_temperature;BMP_pressure;BME280_temperature;BME280_humidity;BME280_pressure;Samples;Min_cycle;Max_cycle;Signal;HPM_P1;HPM_P2
2023/10/02 00:00:39;;;;;;;10.97;6.90;;;16.40;99.90;;;;;;5053807;28;20431;-60
2023/10/02 00:03:09;;;;;;;11.23;6.53;;;16.40;99.90;;;;;;5053300;28;20486;-59
2023/10/02 00:05:41;;;;;;;11.17;7.30;;;16.40;99.90;;;;;;5052945;28;20863;-59
2023/10/02 00:08:25;;;;;;;14.57;6.40;;;16.40;99.90;;;;;;5053210;28;20530;-59
2023/10/02 00:10:52;;;;;;;11.97;6.30;;;16.40;99.90;;;;;;5054383;28;20426;-58
2023/10/02 00:13:20;;;;;;;9.97;6.07;;;16.40;99.90;;;;;;5052740;28;20461;-59
2023/10/02 00:15:47;;;;;;;13.47;6.83;;;16.40;99.90;;;;;;5053274;28;20535;-58
2023/10/02 00:18:16;;;;;;;11.47;6.60;;;16.40;99.90;;;;;;5053417;28;20804;-58
2023/10/02 00:20:42;;;;;;;12.47;6.60;;;16.40;99.90;;;;;;5053365;28;20446;-59
2023/10/02 00:23:11;;;;;;;13.53;7.70;;;16.40;99.90;;;;;;5053005;28;20983;-60
2023/10/02 00:25:51;;;;;;;11.33;6.87;;;16.40;99.90;;;;;;5053218;28;20456;-59
2023/10/02 00:28:30;;;;;;;10.63;6.30;;;16.40;99.90;;;;;;5055572;28;20920;-59
2023/10/02 00:30:57;;;;;;;11.07;7.00;;;16.30;99.90;;;;;;5058196;28;20452;-59
2023/10/02 00:33:27;;;;;;;7.67;6.10;;;16.30;99.90;;;;;;5056832;28;20461;-58
2023/10/02 00:35:56;;;;;;;12.83;7.40;;;16.20;99.90;;;;;;5057147;28;20449;-59
2023/10/02 00:38:24;;;;;;;12.90;6.93;;;16.20;99.90;;;;;;5056968;28;20932;-58
2023/10/02 00:40:51;;;;;;;10.07;5.97;;;16.10;99.90;;;;;;5056924;28;20493;-59
2023/10/02 00:43:35;;;;;;;10.07;6.13;;;16.00;99.90;;;;;;5056872;28;20850;-58
2023/10/02 00:46:02;;;;;;;9.80;6.03;;;16.00;99.90;;;;;;5056879;28;20487;-58
2023/10/02 00:48:28;;;;;;;11.83;7.40;;;16.00;99.90;;;;;;5056650;28;20446;-59
2023/10/02 00:50:59;;;;;;;12.90;7.30;;;15.90;99.90;;;;;;5056803;28;20486;-58
2023/10/02 00:53:38;;;;;;;14.80;7.47;;;15.90;99.90;;;;;;5057042;28;20468;-59
2023/10/02 00:56:19;;;;;;;11.77;6.40;;;15.80;99.90;;;;;;5057246;28;20432;-59
2023/10/02 00:58:48;;;;;;;12.20;7.60;;;15.80;99.90;;;;;;5056879;28;20788;-59
2023/10/02 01:01:17;;;;;;;10.93;7.20;;;15.70;99.90;;;;;;5056908;28;20493;-59
2023/10/02 01:06:24;;;;;;;13.23;7.00;;;15.70;99.90;;;;;;5055235;28;20431;-59
2023/10/02 01:08:53;;;;;;;13.33;7.67;;;15.70;99.90;;;;;;5056229;28;20479;-59
2023/10/02 01:11:20;;;;;;;11.47;6.53;;;15.60;99.90;;;;;;5056175;28;20963;-58
2023/10/02 01:13:47;;;;;;;9.97;6.33;;;15.60;99.90;;;;;;5056350;28;20486;-59
2023/10/02 01:16:17;;;;;;;10.70;7.00;;;15.60;99.90;;;;;;5056302;28;20436;-59
2023/10/02 01:18:44;;;;;;;11.87;7.53;;;15.60;99.90;;;;;;5057932;28;20492;-59
2023/10/02 01:21:11;;;;;;;14.17;7.50;;;15.60;99.90;;;;;;5058141;28;20436;-58
2023/10/02 01:24:06;;;;;;;11.20;6.70;;;15.50;99.90;;;;;;5057800;28;20464;-58
2023/10/02 01:26:35;;;;;;;12.10;8.30;;;15.50;99.90;;;;;;5057142;28;20443;-57
2023/10/02 01:29:04;;;;;;;10.87;5.90;;;15.50;99.90;;;;;;5056818;28;20443;-59
2023/10/02 01:31:41;;;;;;;13.13;6.80;;;15.50;99.90;;;;;;5056521;28;20627;-59
2023/10/02 01:34:10;;;;;;;10.20;7.13;;;15.40;99.90;;;;;;5056902;28;20432;-58
2023/10/02 01:36:41;;;;;;;11.37;7.13;;;15.40;99.90;;;;;;5056947;28;20575;-58
2023/10/02 01:39:14;;;;;;;11.57;6.60;;;15.40;99.90;;;;;;5056058;28;20515;-59
2023/10/02 01:41:41;;;;;;;12.10;6.60;;;15.40;99.90;;;;;;5066978;28;20468;-60
2023/10/02 01:44:10;;;;;;;10.93;6.53;;;15.40;99.90;;;;;;5073069;28;20473;-59
2023/10/02 01:46:38;;;;;;;9.43;7.03;;;15.40;99.90;;;;;;5057390;28;20444;-58
2023/10/02 01:49:24;;;;;;;11.90;7.17;;;15.40;99.90;;;;;;5056500;28;20444;-59
2023/10/02 01:51:55;;;;;;;15.13;8.00;;;15.40;99.90;;;;;;5056335;28;20483;-59
2023/10/02 01:54:23;;;;;;;13.60;8.30;;;15.40;99.90;;;;;;5055444;28;20979;-60
2023/10/02 01:56:52;;;;;;;11.37;7.80;;;15.30;99.90;;;;;;5055464;28;20480;-58
2023/10/02 01:59:19;;;;;;;10.80;6.70;;;15.30;99.90;;;;;;5055208;28;20455;-58
2023/10/02 02:04:14;;;;;;;14.20;7.27;;;15.30;99.90;;;;;;5095483;22;20491;-59
2023/10/02 02:06:51;;;;;;;10.93;6.57;;;15.30;99.90;;;;;;5075253;28;20440;-59
2023/10/02 02:09:23;;;;;;;10.87;7.07;;;15.20;99.90;;;;;;5075458;28;20514;-59
2023/10/02 02:12:05;;;;;;;14.43;7.50;;;15.20;99.90;;;;;;5075373;28;20419;-59
2023/10/02 02:14:32;;;;;;;17.73;8.40;;;15.20;99.90;;;;;;5075482;28;20431;-59
2023/10/02 02:16:59;;;;;;;12.60;7.47;;;15.30;99.90;;;;;;5075807;28;20487;-59
2023/10/02 02:19:25;;;;;;;11.33;7.10;;;15.20;99.90;;;;;;5075177;28;20964;-60
2023/10/02 02:21:56;;;;;;;10.60;6.53;;;15.20;99.90;;;;;;5075001;28;20450;-60
2023/10/02 02:24:24;;;;;;;11.07;7.30;;;15.20;99.90;;;;;;5074982;28;20545;-60
2023/10/02 02:26:57;;;;;;;11.97;7.63;;;15.20;99.90;;;;;;5074954;28;20450;-60
2023/10/02 02:29:26;;;;;;;14.83;7.60;;;15.20;99.90;;;;;;5074819;28;20878;-60
2023/10/02 02:31:54;;;;;;;11.17;7.17;;;15.20;99.90;;;;;;5074785;28;20477;-60
2023/10/02 02:34:23;;;;;;;11.60;6.87;;;15.20;99.90;;;;;;5074699;28;20508;-60
2023/10/02 02:36:50;;;;;;;10.80;7.00;;;15.20;99.90;;;;;;5074370;28;20484;-60
2023/10/02 02:39:22;;;;;;;11.00;7.07;;;15.20;99.90;;;;;;5074639;28;20435;-60
2023/10/02 02:42:08;;;;;;;13.40;7.80;;;15.20;99.90;;;;;;5074536;28;20570;-61
2023/10/02 02:44:39;;;;;;;12.87;8.40;;;15.20;99.90;;;;;;5074359;28;20868;-60
2023/10/02 02:47:08;;;;;;;13.00;7.83;;;15.20;99.90;;;;;;5074448;28;20473;-59
2023/10/02 02:52:22;;;;;;;12.33;7.10;;;15.20;99.90;;;;;;5070861;28;20451;-60
2023/10/02 02:54:58;;;;;;;9.27;6.80;;;15.20;99.90;;;;;;5074788;28;20470;-60
2023/10/02 02:57:26;;;;;;;11.00;7.20;;;15.20;99.90;;;;;;5073895;28;20459;-60
2023/10/02 03:00:24;;;;;;;10.83;7.13;;;15.10;99.90;;;;;;5074104;28;20444;-60
2023/10/02 03:02:46;;;;;;;13.17;7.93;;;15.10;99.90;;;;;;5073522;28;20546;-61
2023/10/02 03:05:13;;;;;;;11.03;6.90;;;15.10;99.90;;;;;;5073988;28;20817;-60
2023/10/02 03:07:39;;;;;;;13.03;7.90;;;15.10;99.90;;;;;;5074000;28;20431;-60
2023/10/02 03:10:10;;;;;;;12.60;7.70;;;15.00;99.90;;;;;;5073650;28;20451;-60
2023/10/02 03:12:44;;;;;;;13.13;8.13;;;15.00;99.90;;;;;;5073868;28;20471;-60
2023/10/02 03:15:14;;;;;;;12.77;8.00;;;15.00;99.90;;;;;;5074066;28;20430;-60
2023/10/02 03:17:42;;;;;;;11.30;7.23;;;15.00;99.90;;;;;;5074189;28;20487;-59
2023/10/02 03:20:22;;;;;;;13.20;9.20;;;15.00;99.90;;;;;;5073868;28;20443;-59
2023/10/02 03:22:51;;;;;;;13.23;8.00;;;15.00;99.90;;;;;;5073811;28;20467;-59
2023/10/02 03:25:40;;;;;;;12.37;7.63;;;15.00;99.90;;;;;;5073139;28;20447;-59
2023/10/02 03:28:16;;;;;;;13.90;8.00;;;15.00;99.90;;;;;;5073567;28;20420;-59
2023/10/02 03:30:46;;;;;;;10.07;7.30;;;15.00;99.90;;;;;;5074185;28;20433;-60
2023/10/02 03:33:19;;;;;;;11.43;7.60;;;15.00;99.90;;;;;;5073584;28;20467;-59
2023/10/02 03:36:07;;;;;;;16.00;8.43;;;15.00;99.90;;;;;;5073534;28;20501;-60
2023/10/02 03:38:35;;;;;;;12.70;8.00;;;14.90;99.90;;;;;;5073324;28;20459;-60
2023/10/02 03:41:03;;;;;;;13.27;7.83;;;14.90;99.90;;;;;;5073747;28;20447;-59
2023/10/02 03:43:35;;;;;;;11.73;7.57;;;14.90;99.90;;;;;;5073374;28;20546;-59
2023/10/02 03:46:06;;;;;;;14.17;9.00;;;14.90;99.90;;;;;;5073289;28;20437;-60
2023/10/02 03:48:33;;;;;;;15.93;8.30;;;14.90;99.90;;;;;;5073387;28;20424;-59
2023/10/02 03:51:03;;;;;;;13.60;8.23;;;14.90;99.90;;;;;;5073233;28;20443;-59
2023/10/02 03:53:30;;;;;;;11.67;7.53;;;14.90;99.90;;;;;;5073768;28;20470;-59
2023/10/02 03:56:36;;;;;;;13.30;8.00;;;14.90;99.90;;;;;;5073035;28;20448;-59
2023/10/02 03:58:52;;;;;;;11.20;7.80;;;14.90;99.90;;;;;;5072484;28;21030;-59
2023/10/02 04:01:28;;;;;;;14.07;7.50;;;14.80;99.90;;;;;;5092742;22;20491;-54
2023/10/02 04:04:09;;;;;;;10.93;7.70;;;14.80;99.90;;;;;;5057873;28;20440;-54
2023/10/02 04:06:36;;;;;;;10.50;7.27;;;14.80;99.90;;;;;;5060077;28;20803;-54
2023/10/02 04:12:19;;;;;;;15.07;8.17;;;14.80;99.90;;;;;;5115354;27;20610;-54
2023/10/02 04:14:46;;;;;;;12.23;8.67;;;14.70;99.90;;;;;;5114587;28;20452;-54
2023/10/02 04:17:20;;;;;;;13.50;7.90;;;14.70;99.90;;;;;;5113368;28;20449;-54
2023/10/02 04:19:49;;;;;;;12.90;8.23;;;14.70;99.90;;;;;;5110622;28;20432;-55
2023/10/02 04:22:23;;;;;;;14.73;8.00;;;14.70;99.90;;;;;;5110481;28;21010;-54
2023/10/02 04:24:53;;;;;;;11.80;7.73;;;14.70;99.90;;;;;;5110783;28;20441;-54
2023/10/02 04:28:00;;;;;;;15.67;8.00;;;14.70;99.90;;;;;;5110718;28;20498;-55
2023/10/02 04:30:22;;;;;;;14.73;8.10;;;14.70;99.90;;;;;;5110265;28;21058;-55
2023/10/02 04:32:58;;;;;;;16.63;8.30;;;14.70;99.90;;;;;;5110737;28;20461;-56
2023/10/02 04:38:09;;;;;;;12.80;7.27;;;14.60;99.90;;;;;;5110369;28;20523;-55
2023/10/02 04:40:49;;;;;;;15.07;7.63;;;14.60;99.90;;;;;;5110522;28;20453;-55
2023/10/02 04:43:22;;;;;;;12.10;7.50;;;14.60;99.90;;;;;;5111300;28;20425;-55
2023/10/02 04:45:48;;;;;;;11.83;7.67;;;14.50;99.90;;;;;;5110443;28;20439;-55
2023/10/02 04:48:16;;;;;;;14.97;8.23;;;14.50;99.90;;;;;;5110373;28;20866;-55
2023/10/02 04:50:45;;;;;;;9.73;7.10;;;14.50;99.90;;;;;;5109883;28;20530;-56
2023/10/02 04:53:22;;;;;;;15.43;8.33;;;14.50;99.90;;;;;;5110056;28;20793;-55
2023/10/02 04:55:57;;;;;;;14.93;8.63;;;14.50;99.90;;;;;;5109974;28;20479;-55
2023/10/02 04:58:27;;;;;;;13.73;7.93;;;14.50;99.90;;;;;;5110203;28;20425;-55
2023/10/02 05:03:49;;;;;;;14.17;8.70;;;14.50;99.90;;;;;;5110172;28;20412;-55
2023/10/02 05:06:16;;;;;;;12.07;7.90;;;14.50;99.90;;;;;;5110080;28;20433;-55
2023/10/02 05:11:26;;;;;;;15.50;8.93;;;14.50;99.90;;;;;;5109121;28;20478;-56
2023/10/02 05:13:59;;;;;;;12.10;8.93;;;14.50;99.90;;;;;;5110009;28;20442;-55
2023/10/02 05:16:32;;;;;;;13.33;8.27;;;14.40;99.90;;;;;;5109763;28;20457;-55
2023/10/02 05:18:59;;;;;;;15.57;8.43;;;14.50;99.90;;;;;;5109665;28;20437;-55
2023/10/02 05:21:38;;;;;;;12.63;7.70;;;14.50;99.90;;;;;;5108582;28;21040;-55
2023/10/02 05:24:05;;;;;;;12.83;8.40;;;14.50;99.90;;;;;;5095950;28;20533;-55
2023/10/02 05:26:36;;;;;;;10.70;8.20;;;14.50;99.90;;;;;;5096283;28;20445;-56
2023/10/02 05:29:07;;;;;;;17.10;9.07;;;14.60;99.90;;;;;;5096213;28;20426;-55
2023/10/02 05:31:35;;;;;;;15.37;9.30;;;14.60;99.90;;;;;;5095539;28;20991;-55
2023/10/02 05:34:07;;;;;;;13.10;8.60;;;14.60;99.90;;;;;;5096020;28;20446;-55
2023/10/02 05:36:35;;;;;;;13.27;8.70;;;14.70;99.90;;;;;;5096771;28;20419;-55
2023/10/02 05:41:46;;;;;;;15.00;8.30;;;14.80;99.90;;;;;;5095492;28;20809;-55
2023/10/02 05:44:20;;;;;;;12.10;8.13;;;14.90;99.90;;;;;;5095767;28;20442;-55
2023/10/02 05:46:57;;;;;;;12.87;7.50;;;14.90;99.90;;;;;;5095723;28;20533;-55
2023/10/02 05:49:24;;;;;;;17.80;8.10;;;15.00;99.90;;;;;;5095641;28;20904;-54
2023/10/02 05:51:55;;;;;;;13.50;8.80;;;15.00;99.90;;;;;;5095559;28;20485;-54
2023/10/02 05:54:26;;;;;;;10.97;7.57;;;15.10;99.90;;;;;;5095588;28;20431;-55
2023/10/02 05:57:08;;;;;;;14.87;8.00;;;15.20;99.90;;;;;;5095144;28;20912;-54
2023/10/02 05:59:45;;;;;;;19.00;8.90;;;15.30;99.90;;;;;;5095573;28;20462;-55
2023/10/02 06:02:12;;;;;;;15.57;9.23;;;15.40;99.90;;;;;;5095520;28;20472;-55
2023/10/02 06:04:43;;;;;;;12.30;8.03;;;15.50;99.90;;;;;;5095943;28;20442;-54
2023/10/02 06:07:11;;;;;;;11.57;7.47;;;15.50;99.90;;;;;;5095022;28;20525;-56
2023/10/02 06:09:44;;;;;;;12.70;8.10;;;15.60;99.90;;;;;;5095194;28;20449;-55
2023/10/02 06:12:11;;;;;;;13.97;8.07;;;15.70;99.90;;;;;;5094859;28;20516;-54
2023/10/02 06:14:42;;;;;;;13.80;8.30;;;15.80;99.90;;;;;;5095142;28;20534;-55
2023/10/02 06:17:11;;;;;;;13.80;8.73;;;15.90;99.90;;;;;;5094739;28;20489;-55
2023/10/02 06:19:43;;;;;;;13.07;7.87;;;16.00;99.90;;;;;;5095247;28;20535;-54
2023/10/02 06:22:13;;;;;;;12.53;7.33;;;16.00;99.90;;;;;;5094690;28;20865;-55
2023/10/02 06:24:40;;;;;;;17.97;7.50;;;16.10;99.90;;;;;;5095115;28;20443;-55
2023/10/02 06:27:13;;;;;;;13.20;8.40;;;16.10;99.90;;;;;;5095460;28;20443;-55
2023/10/02 06:29:44;;;;;;;13.03;8.50;;;16.20;99.90;;;;;;5095479;28;20436;-55
2023/10/02 06:32:19;;;;;;;15.43;8.93;;;16.20;99.90;;;;;;5096405;28;20560;-55
2023/10/02 06:34:47;;;;;;;15.47;8.00;;;16.30;99.90;;;;;;5095351;28;20423;-55
2023/10/02 06:37:16;;;;;;;11.33;7.77;;;16.30;99.90;;;;;;5095069;28;20484;-55
2023/10/02 06:39:45;;;;;;;12.57;8.20;;;16.40;99.90;;;;;;5095143;28;20490;-55
2023/10/02 06:42:16;;;;;;;20.27;8.47;;;16.50;99.90;;;;;;5095057;28;20457;-55
2023/10/02 06:44:53;;;;;;;12.87;8.20;;;16.60;99.90;;;;;;5096200;28;20478;-56
2023/10/02 06:47:23;;;;;;;13.23;7.60;;;16.80;99.90;;;;;;5098438;28;20437;-55
2023/10/02 06:49:52;;;;;;;16.67;7.27;;;16.90;99.90;;;;;;5097418;28;20449;-55
2023/10/02 06:52:18;;;;;;;15.13;8.13;;;17.00;99.90;;;;;;5097660;28;20903;-55
2023/10/02 06:54:49;;;;;;;14.00;9.10;;;17.20;99.90;;;;;;5096621;28;20442;-55
2023/10/02 06:57:17;;;;;;;14.47;8.23;;;17.30;99.90;;;;;;5098312;28;20436;-55
2023/10/02 06:59:53;;;;;;;11.87;7.80;;;17.30;99.90;;;;;;5096506;28;20445;-55
2023/10/02 07:02:22;;;;;;;13.00;8.87;;;17.40;99.90;;;;;;5095275;28;20469;-55
2023/10/02 07:04:50;;;;;;;13.30;7.90;;;17.50;99.90;;;;;;5094253;28;20499;-56
2023/10/02 07:07:21;;;;;;;14.37;8.53;;;17.50;99.90;;;;;;5094723;28;20875;-57
2023/10/02 07:09:48;;;;;;;11.73;7.20;;;17.60;99.90;;;;;;5094120;28;20426;-55
2023/10/02 07:12:15;;;;;;;13.60;9.10;;;17.60;99.90;;;;;;5094032;28;20492;-54
2023/10/02 07:14:43;;;;;;;11.40;7.73;;;17.70;99.90;;;;;;5094019;28;20448;-55
2023/10/02 07:17:18;;;;;;;15.60;8.67;;;17.70;99.90;;;;;;5093943;28;20449;-57
2023/10/02 07:19:50;;;;;;;13.83;8.50;;;17.80;99.90;;;;;;5093611;28;20906;-55
2023/10/02 07:22:18;;;;;;;16.03;8.73;;;17.80;99.90;;;;;;5093429;28;20963;-55
2023/10/02 07:24:46;;;;;;;16.90;8.30;;;17.90;99.90;;;;;;5093851;28;20445;-55
2023/10/02 07:27:25;;;;;;;13.20;8.77;;;17.90;99.90;;;;;;5093982;28;20447;-56
2023/10/02 07:29:56;;;;;;;13.43;8.40;;;18.00;99.90;;;;;;5093729;28;20791;-54
2023/10/02 07:32:26;;;;;;;9.93;7.10;;;18.10;99.90;;;;;;5093711;28;20486;-56
2023/10/02 07:34:53;;;;;;;11.83;8.00;;;18.10;99.90;;;;;;5093434;28;20807;-56
2023/10/02 07:37:22;;;;;;;13.70;8.70;;;18.20;99.90;;;;;;5093178;28;20446;-56
2023/10/02 07:39:56;;;;;;;13.57;8.10;;;18.30;99.90;;;;;;5093362;28;20450;-55
2023/10/02 07:42:24;;;;;;;12.33;7.40;;;18.40;99.90;;;;;;5093991;28;20490;-56
2023/10/02 07:44:52;;;;;;;13.90;8.10;;;18.50;99.90;;;;;;5092918;28;20451;-55
2023/10/02 07:47:21;;;;;;;12.53;8.73;;;18.60;99.90;;;;;;5093634;28;20846;-56
2023/10/02 07:49:51;;;;;;;16.20;9.10;;;18.80;99.90;;;;;;5092926;28;20442;-56
2023/10/02 07:52:30;;;;;;;12.23;7.50;;;18.90;99.90;;;;;;5092735;28;20483;-56
2023/10/02 07:54:59;;;;;;;13.13;8.20;;;19.10;99.90;;;;;;5093065;28;20884;-56
2023/10/02 07:57:30;;;;;;;16.20;8.87;;;19.30;99.90;;;;;;5092839;28;20544;-56
2023/10/02 07:59:59;;;;;;;13.83;8.80;;;19.50;99.90;;;;;;5093506;28;20512;-56
2023/10/02 08:02:30;;;;;;;13.27;8.10;;;19.60;99.90;;;;;;5093101;28;20586;-56
2023/10/02 08:04:59;;;;;;;11.63;8.00;;;19.80;99.90;;;;;;5093087;28;20432;-57
2023/10/02 08:07:26;;;;;;;15.23;7.50;;;19.90;99.90;;;;;;5093848;28;20440;-56
2023/10/02 08:09:55;;;;;;;11.73;8.00;;;20.10;99.90;;;;;;5093174;28;20540;-57
2023/10/02 08:12:34;;;;;;;14.80;8.67;;;20.20;99.90;;;;;;5092808;28;20484;-58
2023/10/02 08:15:04;;;;;;;12.80;7.77;;;20.40;99.90;;;;;;5093261;28;20423;-56
2023/10/02 08:20:16;;;;;;;12.43;8.53;;;20.70;99.90;;;;;;5092473;28;20423;-57
2023/10/02 08:22:45;;;;;;;11.87;7.83;;;20.80;99.90;;;;;;5093144;28;20455;-57
2023/10/02 08:25:14;;;;;;;13.53;7.70;;;20.80;99.90;;;;;;5093007;28;20488;-57
2023/10/02 08:27:41;;;;;;;12.53;7.70;;;20.80;99.90;;;;;;5093058;28;20447;-57
2023/10/02 08:30:19;;;;;;;11.90;7.63;;;20.70;99.90;;;;;;5093503;28;20524;-57
2023/10/02 08:32:45;;;;;;;13.60;8.17;;;20.70;99.90;;;;;;5093431;28;20510;-56
2023/10/02 08:35:15;;;;;;;15.43;8.43;;;20.70;99.90;;;;;;5092502;28;20448;-56
2023/10/02 08:37:42;;;;;;;12.80;7.87;;;20.80;99.90;;;;;;5092594;28;20450;-57
2023/10/02 08:40:10;;;;;;;11.60;7.87;;;20.80;99.90;;;;;;5093010;28;20449;-58
2023/10/02 08:42:46;;;;;;;12.90;7.57;;;20.90;99.90;;;;;;5092662;28;21077;-56
2023/10/02 08:45:18;;;;;;;12.83;7.20;;;21.00;99.90;;;;;;5093276;28;20449;-56
2023/10/02 08:47:47;;;;;;;13.17;7.63;;;21.00;99.90;;;;;;5093710;28;20423;-56
2023/10/02 08:50:16;;;;;;;14.70;8.73;;;20.90;99.80;;;;;;5092841;28;20950;-56
2023/10/02 08:52:50;;;;;;;13.13;7.77;;;20.80;99.70;;;;;;5092937;28;20490;-58
2023/10/02 08:55:40;;;;;;;15.07;9.17;;;20.90;99.90;;;;;;5093072;28;20456;-57
2023/10/02 08:58:20;;;;;;;13.07;8.50;;;21.00;99.60;;;;;;5094720;28;20969;-56
2023/10/02 09:04:21;;;;;;;15.57;8.10;;;21.30;98.60;;;;;;5096651;28;20403;-58
2023/10/02 09:06:44;;;;;;;13.57;7.87;;;21.50;97.80;;;;;;5096227;28;20440;-57
2023/10/02 09:09:26;;;;;;;15.77;8.33;;;21.70;97.10;;;;;;5096521;28;20519;-56
2023/10/02 09:11:56;;;;;;;11.47;7.17;;;21.70;96.70;;;;;;5096211;28;20484;-57
2023/10/02 09:14:39;;;;;;;13.03;7.77;;;21.70;96.40;;;;;;5096352;28;20435;-57
2023/10/02 09:17:13;;;;;;;14.23;8.87;;;21.60;96.60;;;;;;5096470;28;20522;-57
2023/10/02 09:19:48;;;;;;;13.90;8.20;;;21.60;96.70;;;;;;5096920;28;20735;-57
2023/10/02 09:22:17;;;;;;;15.27;8.50;;;21.70;96.50;;;;;;5098625;28;20451;-57
2023/10/02 09:24:55;;;;;;;17.13;7.43;;;21.80;96.20;;;;;;5101429;28;21000;-57
2023/10/02 09:27:25;;;;;;;14.20;8.17;;;22.00;95.70;;;;;;5101726;28;20428;-57
2023/10/02 09:30:16;;;;;;;14.07;8.27;;;22.20;95.20;;;;;;5101885;28;20448;-57
2023/10/02 09:32:50;;;;;;;14.60;8.17;;;22.30;94.70;;;;;;5100214;28;20478;-57
2023/10/02 09:35:29;;;;;;;14.30;9.17;;;22.50;94.10;;;;;;5099617;28;20461;-58
2023/10/02 09:38:02;;;;;;;14.63;8.63;;;22.60;93.60;;;;;;5095965;28;20497;-57
2023/10/02 09:40:53;;;;;;;14.73;8.63;;;22.70;93.10;;;;;;5095949;28;20430;-57
2023/10/02 09:43:21;;;;;;;14.57;7.57;;;22.80;92.70;;;;;;5095333;28;20462;-57
2023/10/02 09:45:48;;;;;;;12.93;7.83;;;22.90;92.10;;;;;;5095742;28;20450;-57
2023/10/02 09:51:16;;;;;;;14.80;8.30;;;23.10;91.10;;;;;;5095494;28;20558;-58
2023/10/02 09:54:04;;;;;;;11.80;7.37;;;23.10;90.60;;;;;;5096135;28;20467;-57
2023/10/02 09:56:41;;;;;;;17.40;8.47;;;23.20;90.00;;;;;;5095795;28;20850;-57
2023/10/02 09:59:16;;;;;;;12.50;8.13;;;23.30;89.60;;;;;;5095700;28;20422;-57
2023/10/02 10:02:07;;;;;;;13.63;8.30;;;23.40;88.60;;;;;;5095268;28;21020;-58
2023/10/02 10:08:18;;;;;;;10.80;7.17;;;23.50;87.00;;;;;;5094741;28;20406;-56
2023/10/02 10:10:49;;;;;;;12.77;7.20;;;23.60;86.10;;;;;;5094345;28;20946;-59
2023/10/02 10:13:26;;;;;;;12.00;7.60;;;23.70;85.50;;;;;;5095020;28;20492;-58
2023/10/02 10:16:29;;;;;;;13.53;8.20;;;23.80;84.70;;;;;;5095182;28;20438;-58
2023/10/02 10:21:56;;;;;;;13.57;8.00;;;24.00;83.10;;;;;;5092116;28;20457;-58
2023/10/02 10:25:22;;;;;;;10.70;6.87;;;24.10;82.40;;;;;;5094944;28;20857;-59
2023/10/02 10:27:58;;;;;;;13.17;8.07;;;24.20;81.10;;;;;;5094384;28;20541;-58
2023/10/02 10:30:39;;;;;;;14.13;7.00;;;24.20;80.00;;;;;;5094654;28;20427;-58
2023/10/02 10:33:45;;;;;;;15.03;8.60;;;24.30;78.90;;;;;;5094117;28;20882;-57
2023/10/02 10:36:33;;;;;;;11.30;7.37;;;24.30;77.90;;;;;;5094777;28;20446;-56
2023/10/02 10:39:30;;;;;;;11.47;8.07;;;24.40;77.00;;;;;;5094710;28;20437;-57
2023/10/02 10:41:57;;;;;;;11.33;7.47;;;24.50;76.30;;;;;;5094225;28;20458;-57
2023/10/02 10:44:32;;;;;;;11.70;7.07;;;24.50;75.40;;;;;;5094727;28;20418;-57
2023/10/02 10:47:03;;;;;;;15.30;9.00;;;24.60;74.80;;;;;;5094438;28;20428;-57
2023/10/02 10:52:38;;;;;;;14.80;8.07;;;24.80;73.80;;;;;;5093834;28;21022;-57
2023/10/02 10:55:32;;;;;;;12.73;7.33;;;24.80;73.10;;;;;;5094390;28;20839;-56
2023/10/02 10:58:00;;;;;;;10.40;7.40;;;24.90;72.80;;;;;;5093945;28;20757;-57
2023/10/02 11:00:31;;;;;;;11.17;7.23;;;24.90;72.40;;;;;;5094194;28;20472;-57
2023/10/02 11:03:01;;;;;;;12.20;7.57;;;25.00;71.90;;;;;;5095444;28;20458;-57
2023/10/02 11:05:33;;;;;;;11.60;7.87;;;25.10;71.50;;;;;;5093767;28;20450;-58
2023/10/02 11:08:28;;;;;;;11.27;7.40;;;25.10;71.10;;;;;;5094718;28;20426;-57
2023/10/02 11:11:02;;;;;;;11.80;7.70;;;25.10;70.60;;;;;;5069876;28;20478;-56
2023/10/02 11:13:30;;;;;;;11.43;7.50;;;25.20;70.40;;;;;;5094211;28;20987;-57
2023/10/02 11:16:08;;;;;;;13.07;7.53;;;25.20;70.10;;;;;;5094135;28;20434;-57
2023/10/02 11:18:39;;;;;;;11.03;7.40;;;25.20;69.80;;;;;;5094204;28;20430;-57
2023/10/02 11:21:24;;;;;;;12.00;8.03;;;25.20;69.80;;;;;;5093987;28;20511;-57
2023/10/02 11:23:53;;;;;;;16.77;7.60;;;25.30;69.70;;;;;;5093547;28;20501;-57
2023/10/02 11:26:23;;;;;;;13.03;8.20;;;25.40;69.40;;;;;;5093689;28;20441;-57
2023/10/02 11:28:50;;;;;;;14.57;7.53;;;25.50;69.10;;;;;;5093257;28;20450;-55
2023/10/02 11:31:32;;;;;;;10.47;7.37;;;25.70;68.70;;;;;;5093513;28;20454;-56
2023/10/02 11:34:03;;;;;;;12.73;7.50;;;25.80;68.10;;;;;;5093515;28;20465;-57
2023/10/02 11:36:33;;;;;;;12.73;7.53;;;25.90;67.90;;;;;;5093843;28;20442;-57
2023/10/02 11:39:08;;;;;;;14.90;8.60;;;25.90;67.70;;;;;;5093789;28;20433;-57
2023/10/02 11:41:34;;;;;;;13.27;7.03;;;25.90;67.70;;;;;;5093319;28;20507;-57
2023/10/02 11:44:03;;;;;;;10.37;7.40;;;25.90;67.40;;;;;;5093150;28;20807;-57
2023/10/02 11:46:31;;;;;;;11.57;7.13;;;26.00;67.30;;;;;;5093607;28;20438;-57
2023/10/02 11:48:58;;;;;;;12.20;7.00;;;26.00;66.90;;;;;;5093586;28;20434;-57
2023/10/02 11:51:28;;;;;;;12.33;7.90;;;26.00;66.50;;;;;;5093212;28;20834;-58
2023/10/02 11:53:56;;;;;;;15.03;8.10;;;26.00;66.50;;;;;;5093290;28;20478;-58
2023/10/02 11:56:23;;;;;;;10.30;6.33;;;26.00;66.20;;;;;;5093850;28;20438;-57
2023/10/02 11:58:52;;;;;;;10.30;7.27;;;25.90;66.00;;;;;;5096614;28;20442;-58
2023/10/02 12:01:19;;;;;;;12.07;7.20;;;25.90;65.90;;;;;;5099307;28;20462;-58
2023/10/02 12:03:47;;;;;;;13.27;7.70;;;25.90;65.80;;;;;;5099057;28;20454;-57
2023/10/02 12:06:16;;;;;;;13.57;6.90;;;26.00;65.70;;;;;;5099202;28;20951;-57
2023/10/02 12:08:44;;;;;;;11.37;7.27;;;25.90;65.50;;;;;;5098200;28;20731;-56
2023/10/02 12:11:12;;;;;;;10.23;6.60;;;25.90;65.40;;;;;;5096514;28;20474;-57
2023/10/02 12:13:38;;;;;;;11.27;7.17;;;25.90;65.40;;;;;;5092992;28;20553;-57
2023/10/02 12:16:07;;;;;;;13.80;7.47;;;25.90;65.40;;;;;;5092727;28;20449;-57
2023/10/02 12:18:35;;;;;;;11.83;6.70;;;25.90;65.50;;;;;;5093128;28;20442;-57
2023/10/02 12:21:08;;;;;;;12.50;6.70;;;26.00;65.60;;;;;;5093233;28;20442;-59
2023/10/02 12:23:39;;;;;;;12.20;7.67;;;25.90;65.70;;;;;;5092856;28;20488;-59
2023/10/02 12:26:09;;;;;;;12.10;6.80;;;25.80;66.00;;;;;;5092923;28;20426;-57
2023/10/02 12:28:36;;;;;;;10.43;6.50;;;25.70;66.30;;;;;;5093510;28;20503;-56
2023/10/02 12:31:08;;;;;;;14.67;7.47;;;25.60;66.50;;;;;;5093024;28;20490;-57
2023/10/02 12:33:35;;;;;;;9.93;7.30;;;25.50;66.70;;;;;;5095990;28;20809;-60
2023/10/02 12:36:11;;;;;;;11.50;7.10;;;25.50;66.90;;;;;;5096912;28;20449;-57
2023/10/02 12:38:38;;;;;;;13.33;7.40;;;25.50;67.90;;;;;;5097646;28;20429;-57
2023/10/02 12:41:12;;;;;;;10.40;7.27;;;25.40;67.20;;;;;;5096807;28;20465;-58
2023/10/02 12:43:38;;;;;;;11.03;6.30;;;25.40;67.30;;;;;;5096939;28;20430;-57
2023/10/02 12:46:06;;;;;;;9.77;6.77;;;25.40;67.50;;;;;;5096877;28;20442;-58
2023/10/02 12:48:33;;;;;;;10.50;6.67;;;25.40;67.40;;;;;;5096618;28;20442;-58
2023/10/02 12:51:06;;;;;;;9.73;6.63;;;25.40;67.50;;;;;;5096510;28;20474;-58
2023/10/02 12:53:33;;;;;;;11.80;7.30;;;25.40;67.70;;;;;;5096576;28;21065;-58
2023/10/02 12:55:59;;;;;;;11.53;8.00;;;25.40;67.80;;;;;;5096253;28;20444;-58
2023/10/02 12:58:27;;;;;;;10.10;6.87;;;25.50;67.90;;;;;;5096567;28;20453;-59
2023/10/02 13:00:54;;;;;;;9.60;5.70;;;25.40;68.00;;;;;;5096662;28;20484;-57
2023/10/02 13:03:21;;;;;;;11.37;7.03;;;25.30;68.10;;;;;;5096390;28;20434;-58
2023/10/02 13:05:48;;;;;;;11.37;7.53;;;25.30;68.30;;;;;;5097213;28;20532;-58
2023/10/02 13:08:16;;;;;;;11.80;7.23;;;25.30;68.40;;;;;;5096315;28;20440;-58
2023/10/02 13:10:43;;;;;;;10.50;7.57;;;25.40;68.40;;;;;;5096002;28;20468;-58
2023/10/02 13:13:11;;;;;;;11.10;7.20;;;25.40;68.20;;;;;;5097082;28;20478;-58
2023/10/02 13:15:39;;;;;;;12.13;7.37;;;25.50;68.30;;;;;;5096666;28;20438;-58
2023/10/02 13:18:06;;;;;;;9.60;6.17;;;25.50;68.30;;;;;;5096231;28;20449;-58
2023/10/02 13:20:33;;;;;;;11.10;6.60;;;25.50;68.20;;;;;;5096217;28;20442;-58
2023/10/02 13:23:01;;;;;;;10.63;6.67;;;25.50;68.40;;;;;;5095847;28;20963;-58
2023/10/02 13:25:29;;;;;;;8.50;6.93;;;25.50;68.50;;;;;;5095951;28;20483;-58
2023/10/02 13:27:57;;;;;;;9.97;7.10;;;25.50;68.50;;;;;;5095982;28;20446;-59
2023/10/02 13:30:26;;;;;;;11.67;8.17;;;25.50;68.50;;;;;;5096932;28;20480;-58
2023/10/02 13:32:55;;;;;;;12.27;7.20;;;25.60;68.60;;;;;;5095856;28;20527;-58
2023/10/02 13:35:23;;;;;;;10.87;6.37;;;25.50;68.50;;;;;;5095822;28;20450;-58
2023/10/02 13:37:50;;;;;;;11.00;7.40;;;25.60;68.70;;;;;;5095888;28;20538;-58
2023/10/02 13:40:26;;;;;;;11.83;7.00;;;25.60;68.60;;;;;;5095370;28;20462;-58
2023/10/02 13:42:54;;;;;;;11.40;7.57;;;25.70;68.50;;;;;;5095128;28;20511;-58